createdAt,value
2023-04-27T00:05:36.845Z,43.05
2023-04-27T00:20:38.536Z,43.07
2023-04-27T00:35:40.303Z,43.04
2023-04-27T00:50:42.040Z,43.05
2023-04-27T01:05:43.856Z,43.10
2023-04-27T01:20:45.648Z,42.78
2023-04-27T01:35:47.451Z,42.92
2023-04-27T01:50:49.237Z,42.88
2023-04-27T02:05:50.913Z,42.89
2023-04-27T02:20:52.559Z,42.99
2023-04-27T02:35:54.299Z,42.76
2023-04-27T02:50:56.100Z,42.83
2023-04-27T03:05:57.787Z,42.60
2023-04-27T03:21:12.475Z,42.60
2023-04-27T03:36:14.173Z,42.63
2023-04-27T03:51:15.849Z,42.70
2023-04-27T04:06:17.888Z,42.70
2023-04-27T04:21:19.545Z,42.89
2023-04-27T04:36:21.205Z,42.49
2023-04-27T04:51:23.029Z,42.79
2023-04-27T05:06:24.682Z,42.49
2023-04-27T05:21:26.314Z,42.62
2023-04-27T05:36:28.033Z,42.82
2023-04-27T05:51:29.736Z,42.32
2023-04-27T06:06:32.315Z,42.34
2023-04-27T06:21:34.971Z,42.29
2023-04-27T06:36:36.729Z,42.18
2023-04-27T06:51:38.519Z,42.11
2023-04-27T07:06:40.414Z,41.87
2023-04-27T07:21:42.113Z,41.82
2023-04-27T07:36:45.163Z,42.22
2023-04-27T07:51:46.858Z,42.42
2023-04-27T08:06:48.877Z,42.38
2023-04-27T08:21:51.028Z,42.54
2023-04-27T08:36:53.066Z,42.37
2023-04-27T08:51:54.736Z,42.72
2023-04-27T09:07:10.531Z,42.82
2023-04-27T09:22:12.188Z,42.56
2023-04-27T09:37:14.477Z,42.96
2023-04-27T09:52:16.139Z,42.98
2023-04-27T10:07:18.172Z,43.35
2023-04-27T10:22:19.863Z,43.48
2023-04-27T10:37:21.590Z,43.68
2023-04-27T10:52:23.346Z,43.43
2023-04-27T11:07:27.119Z,43.94
2023-04-27T11:22:29.075Z,43.80
2023-04-27T11:37:31.031Z,43.58
2023-04-27T11:52:34.516Z,43.91
2023-04-27T12:07:36.207Z,44.02
2023-04-27T12:22:37.891Z,43.66
2023-04-27T12:37:39.587Z,44.02
2023-04-27T12:52:41.305Z,44.11
2023-04-27T13:07:43.162Z,44.44
2023-04-27T13:22:44.805Z,44.39
2023-04-27T13:37:47.000Z,44.14
2023-04-27T13:52:48.673Z,44.41
2023-04-27T14:07:50.372Z,44.76
2023-04-27T14:22:52.067Z,44.93
2023-04-27T14:37:54.244Z,44.79
2023-04-27T14:52:55.969Z,44.98
2023-04-27T15:07:57.719Z,44.78
2023-04-27T15:22:59.441Z,44.96
2023-04-27T15:38:01.121Z,45.19
2023-04-27T15:53:02.793Z,44.86
2023-04-27T16:08:04.610Z,45.33
2023-04-27T16:23:06.301Z,45.40
2023-04-27T16:38:08.034Z,45.51
2023-04-27T16:53:11.664Z,45.57
2023-04-27T17:08:13.688Z,45.40
2023-04-27T17:23:15.370Z,45.13
2023-04-27T17:38:17.124Z,45.06
2023-04-27T17:53:18.819Z,45.00
2023-04-27T18:08:20.528Z,44.94
2023-04-27T18:23:22.404Z,45.31
2023-04-27T18:38:24.165Z,44.67
2023-04-27T18:53:27.285Z,44.60
2023-04-27T19:08:29.041Z,44.42
2023-04-27T19:23:30.757Z,44.46
2023-04-27T19:38:32.502Z,44.50
2023-04-27T19:53:34.193Z,44.32
2023-04-27T20:08:35.866Z,44.52
2023-04-27T20:23:37.548Z,44.35
2023-04-27T20:38:39.212Z,44.22
2023-04-27T20:53:40.920Z,44.15
2023-04-27T21:08:42.702Z,43.92
2023-04-27T21:23:44.755Z,44.02
2023-04-27T21:38:47.363Z,43.63
2023-04-27T21:53:49.001Z,43.71
2023-04-27T22:08:50.688Z,43.76
2023-04-27T22:23:52.427Z,43.60
2023-04-27T22:38:54.110Z,43.74
2023-04-27T22:53:55.829Z,43.79
2023-04-27T23:08:57.562Z,43.94
2023-04-27T23:23:59.197Z,43.75
2023-04-27T23:39:00.910Z,43.74
2023-04-27T23:54:02.739Z,43.76
